createdAt,value
2023-05-02T00:02:22.750Z,11.4
2023-05-02T00:21:35.402Z,11.9
2023-05-02T00:40:45.434Z,11.1
2023-05-02T00:59:53.950Z,10.7
2023-05-02T01:19:05.018Z,10.4
2023-05-02T01:38:16.502Z,10.2
2023-05-02T01:57:28.340Z,10.6
2023-05-02T02:16:40.104Z,11
2023-05-02T02:35:50.727Z,10.8
2023-05-02T02:55:01.480Z,10.6
2023-05-02T03:14:11.626Z,10.9
2023-05-02T03:33:22.769Z,10.9
2023-05-02T03:52:34.661Z,11.1
2023-05-02T04:11:45.753Z,11.1
2023-05-02T04:30:57.509Z,11
2023-05-02T04:50:10.109Z,11.2
2023-05-02T05:09:21.867Z,11.3
2023-05-02T05:28:33.568Z,11.4
2023-05-02T05:47:43.670Z,11.2
2023-05-02T06:06:53.617Z,11.2
2023-05-02T06:26:09.202Z,11.2
2023-05-02T06:45:18.048Z,11.3
2023-05-02T07:04:30.418Z,11.5
2023-05-02T07:23:42.426Z,11.6
2023-05-02T07:42:57.574Z,12
2023-05-02T08:02:06.153Z,11.8
2023-05-02T08:21:17.586Z,11.3
2023-05-02T08:40:41.361Z,11.9
2023-05-02T08:59:47.614Z,12.1
2023-05-02T09:18:57.218Z,12.3
2023-05-02T09:38:13.878Z,12.7
2023-05-02T09:57:23.355Z,12.8
2023-05-02T10:16:32.352Z,12.2
2023-05-02T10:35:41.101Z,12.3
2023-05-02T10:54:52.251Z,11.5
2023-05-02T11:14:02.453Z,11.2
2023-05-02T11:33:14.699Z,11.8
2023-05-02T11:52:24.450Z,12.3
2023-05-02T12:11:36.097Z,12.7
2023-05-02T12:30:50.091Z,12.1
2023-05-02T12:50:02.734Z,13.2
2023-05-02T13:09:14.003Z,13.6
2023-05-02T13:28:25.307Z,12.9
2023-05-02T13:47:40.143Z,13.2
2023-05-02T14:06:49.787Z,13.2
2023-05-02T14:26:01.572Z,13.6
2023-05-02T14:45:13.673Z,13
2023-05-02T15:04:22.110Z,13.8
2023-05-02T15:23:34.269Z,14.3
2023-05-02T15:42:44.543Z,14
2023-05-02T16:01:55.387Z,13.9
2023-05-02T16:21:06.964Z,13.7
2023-05-02T16:40:13.720Z,13.5
2023-05-02T16:59:22.289Z,13
2023-05-02T17:18:36.386Z,13.3
2023-05-02T17:37:44.926Z,13
2023-05-02T17:56:54.504Z,12.5
2023-05-02T18:16:03.806Z,11.7
2023-05-02T18:35:15.048Z,11.6
2023-05-02T18:54:25.127Z,10.9
2023-05-02T19:13:32.550Z,10.3
2023-05-02T19:32:45.142Z,9.9
2023-05-02T19:51:52.859Z,9.3
2023-05-02T20:11:02.594Z,9
2023-05-02T20:30:12.184Z,8.4
2023-05-02T20:49:22.537Z,7.9
2023-05-02T21:08:32.420Z,7.3
2023-05-02T21:27:40.732Z,7.1
2023-05-02T21:46:52.560Z,7
2023-05-02T22:06:03.411Z,6.6
2023-05-02T22:25:15.643Z,6.6
2023-05-02T22:44:26.009Z,5.5
2023-05-02T23:03:36.459Z,5.3
2023-05-02T23:22:44.282Z,4.8
2023-05-02T23:41:56.001Z,5.3
